Terminal Aerodrome Forecast
Issued by NWS

Home | Current Version | Previous Version | Text Only | Print | Product List | Glossary On
Versions: 1 2 3 4 5 6 7 8 9 10 11 12 13 14 15
582
FTUS46 KSEW 232335
TAFPAE
TAF
KPAE 232335Z 2400/2424 13019G25KT P6SM SCT013 OVC035
     FM240100 17016G24KT 5SM -SN OVC030
      TEMPO 2401/2404 3SM -SN BKN011 OVC030
     FM240400 18010KT P6SM VCSH BKN012 OVC030
     FM240700 20014G23KT P6SM -SHRA OVC010
     FM241800 32006KT P6SM -SHRASN OVC015
     FM242100 30006KT P6SM -SHRA BKN035=

USA.gov is the U.S. government's official web portal to all federal, state and local government web resources and services.